Time;durP1;ratioP1;P1;durP2;ratioP2;P2;SDS_P1;SDS_P2;PMS_P1;PMS_P2;Temp;Humidity;BMP_temperature;BMP_pressure;BME280_temperature;BME280_humidity;BME280_pressure;Samples;Min_cycle;Max_cycle;Signal;HPM_P1;HPM_P2
2023/05/06 00:00:05;;;;;;;0.40;0.30;;;;;;;14.71;100.00;95310.75;5071174;28;20481;-62
2023/05/06 00:02:35;;;;;;;2.03;0.40;;;;;;;14.56;100.00;95312.63;5071597;28;20433;-62
2023/05/06 00:05:04;;;;;;;0.40;0.30;;;;;;;14.46;100.00;95310.16;5071497;28;20446;-62
2023/05/06 00:07:33;;;;;;;1.00;0.70;;;;;;;14.44;100.00;95308.84;5071264;28;20457;-62
2023/05/06 00:10:01;;;;;;;0.40;0.20;;;;;;;14.35;100.00;95298.06;5070941;28;20480;-62
2023/05/06 00:12:30;;;;;;;0.40;0.30;;;;;;;14.16;100.00;95301.84;5071746;28;20469;-62
2023/05/06 00:14:58;;;;;;;1.00;1.00;;;;;;;14.32;100.00;95295.97;5071222;28;20532;-62
2023/05/06 00:17:26;;;;;;;0.50;0.50;;;;;;;14.35;100.00;95284.72;5071450;28;20914;-62
2023/05/06 00:19:57;;;;;;;0.50;0.50;;;;;;;14.55;100.00;95299.56;5071323;28;20446;-62
2023/05/06 00:22:25;;;;;;;0.40;0.30;;;;;;;14.57;100.00;95298.19;5070941;28;20437;-62
2023/05/06 00:24:54;;;;;;;0.73;0.73;;;;;;;14.45;100.00;95299.75;5071369;28;20950;-62
2023/05/06 00:27:22;;;;;;;0.40;0.30;;;;;;;14.39;100.00;95299.06;5070875;28;21153;-62
2023/05/06 00:29:50;;;;;;;0.97;0.40;;;;;;;14.35;100.00;95306.06;5071372;28;20438;-62
2023/05/06 00:32:18;;;;;;;0.40;0.40;;;;;;;14.37;100.00;95289.78;5070970;28;20446;-62
2023/05/06 00:34:47;;;;;;;0.50;0.40;;;;;;;14.59;100.00;95304.06;5071412;28;20813;-63
2023/05/06 00:37:16;;;;;;;0.40;0.30;;;;;;;14.44;100.00;95303.53;5071042;28;20446;-62
2023/05/06 00:39:45;;;;;;;0.50;0.30;;;;;;;14.60;100.00;95299.47;5071088;28;20453;-62
2023/05/06 00:42:13;;;;;;;0.70;0.70;;;;;;;14.16;100.00;95259.19;5070475;28;20479;-62
2023/05/06 00:44:41;;;;;;;0.40;0.30;;;;;;;14.53;100.00;95309.75;5070497;28;20452;-62
2023/05/06 00:47:09;;;;;;;1.00;1.00;;;;;;;14.56;100.00;95307.31;5070004;28;20942;-62
2023/05/06 00:49:38;;;;;;;0.40;0.30;;;;;;;14.59;100.00;95311.25;5070193;28;21013;-62
2023/05/06 00:52:06;;;;;;;0.40;0.40;;;;;;;14.51;100.00;95303.94;5070545;28;20429;-62
2023/05/06 00:54:36;;;;;;;2.30;0.50;;;;;;;14.62;100.00;95319.44;5070973;28;20533;-62
2023/05/06 00:57:05;;;;;;;0.50;0.40;;;;;;;14.43;100.00;95326.72;5070574;28;20525;-62
2023/05/06 00:59:33;;;;;;;0.40;0.30;;;;;;;14.25;100.00;95318.72;5071150;28;20813;-62
2023/05/06 01:02:01;;;;;;;0.60;0.50;;;;;;;14.23;100.00;95307.56;5070797;28;20489;-62
2023/05/06 01:04:30;;;;;;;0.40;0.30;;;;;;;14.24;100.00;95293.19;5073154;28;20476;-62
2023/05/06 01:07:08;;;;;;;0.47;0.47;;;;;;;14.12;100.00;95317.59;5073985;28;20438;-62
2023/05/06 01:09:42;;;;;;;0.87;0.60;;;;;;;13.49;100.00;95237.31;5073872;28;20451;-62
2023/05/06 01:12:17;;;;;;;0.60;0.60;;;;;;;13.88;100.00;95309.72;5074388;28;20524;-62
2023/05/06 01:14:56;;;;;;;1.13;1.03;;;;;;;14.08;100.00;95310.50;5073829;28;20457;-62
2023/05/06 01:17:27;;;;;;;0.43;0.40;;;;;;;14.29;100.00;95314.41;5074437;28;20444;-62
2023/05/06 01:20:00;;;;;;;0.60;0.50;;;;;;;14.46;100.00;95320.00;5074111;28;20444;-62
2023/05/06 01:22:30;;;;;;;0.40;0.33;;;;;;;14.54;100.00;95314.00;5073748;28;21008;-62
2023/05/06 01:25:00;;;;;;;0.40;0.40;;;;;;;14.43;100.00;95288.59;5074282;28;20957;-62
2023/05/06 01:27:29;;;;;;;0.30;0.20;;;;;;;14.60;100.00;95313.63;5073305;28;20481;-62
2023/05/06 01:29:58;;;;;;;0.30;0.30;;;;;;;14.27;100.00;95316.59;5074451;28;20437;-62
2023/05/06 01:32:36;;;;;;;0.70;0.50;;;;;;;14.36;100.00;95310.31;5060323;28;20466;-62
2023/05/06 01:35:15;;;;;;;3.50;2.03;;;;;;;13.95;100.00;95312.81;5073880;28;20891;-62
2023/05/06 01:37:51;;;;;;;1.23;1.23;;;;;;;14.05;100.00;95300.41;5073768;28;20433;-62
2023/05/06 01:40:25;;;;;;;1.90;0.50;;;;;;;13.92;100.00;95312.59;5073677;28;20925;-62
2023/05/06 01:42:54;;;;;;;0.50;0.43;;;;;;;13.41;100.00;95307.19;5073335;28;20469;-62
2023/05/06 01:45:27;;;;;;;0.47;0.40;;;;;;;13.23;100.00;95295.44;5073606;28;20455;-62
2023/05/06 01:47:56;;;;;;;0.60;0.60;;;;;;;13.24;100.00;95305.03;5073940;28;20433;-62
2023/05/06 01:50:25;;;;;;;0.40;0.30;;;;;;;13.32;100.00;95300.94;5073148;28;20441;-63
2023/05/06 01:52:57;;;;;;;0.47;0.40;;;;;;;13.74;100.00;95308.84;5073315;28;20445;-63
2023/05/06 01:55:27;;;;;;;0.47;0.43;;;;;;;13.84;100.00;95308.72;5073109;28;20445;-63
2023/05/06 01:57:56;;;;;;;0.50;0.40;;;;;;;13.68;100.00;95301.25;5073500;28;20465;-63
2023/05/06 02:00:25;;;;;;;0.60;0.57;;;;;;;13.61;100.00;95304.25;5073551;28;20444;-63
2023/05/06 02:02:53;;;;;;;0.70;0.70;;;;;;;13.36;100.00;95300.06;5073024;28;20513;-63
2023/05/06 02:05:22;;;;;;;0.60;0.50;;;;;;;13.35;100.00;95295.03;5073310;28;20442;-64
2023/05/06 02:07:50;;;;;;;0.40;0.30;;;;;;;13.50;100.00;95300.16;5073308;28;20433;-63
2023/05/06 02:10:19;;;;;;;0.50;0.50;;;;;;;13.51;100.00;95301.72;5073308;28;20438;-64
2023/05/06 02:12:48;;;;;;;0.40;0.40;;;;;;;13.25;100.00;95303.16;5073053;28;20441;-64
2023/05/06 02:15:17;;;;;;;3.33;0.40;;;;;;;13.10;100.00;95293.50;5072746;28;20445;-64
2023/05/06 02:17:45;;;;;;;0.50;0.50;;;;;;;13.30;100.00;95295.91;5070622;28;20533;-64
2023/05/06 02:20:13;;;;;;;0.40;0.30;;;;;;;13.36;100.00;95296.59;5062613;28;20444;-65
2023/05/06 02:22:42;;;;;;;0.30;0.20;;;;;;;12.99;100.00;95301.84;5072936;28;20564;-64
2023/05/06 02:25:10;;;;;;;0.67;0.67;;;;;;;13.03;100.00;95301.00;5072790;28;20538;-64
2023/05/06 02:27:38;;;;;;;0.60;0.40;;;;;;;13.12;100.00;95309.97;5072405;28;20465;-64
2023/05/06 02:30:11;;;;;;;0.50;0.30;;;;;;;13.21;100.00;95302.94;5072985;28;20506;-64
2023/05/06 02:32:40;;;;;;;0.73;0.73;;;;;;;13.23;100.00;95297.34;5072305;28;20918;-64
2023/05/06 02:35:09;;;;;;;1.10;1.10;;;;;;;12.98;100.00;95263.03;5072690;28;20445;-64
2023/05/06 02:37:37;;;;;;;0.50;0.40;;;;;;;13.33;100.00;95310.50;5072957;28;20926;-63
2023/05/06 02:40:07;;;;;;;0.40;0.30;;;;;;;13.24;100.00;95314.88;5072589;28;20503;-64
2023/05/06 02:42:36;;;;;;;0.50;0.30;;;;;;;13.17;100.00;95323.22;5047003;28;21015;-64
2023/05/06 02:45:05;;;;;;;0.43;0.33;;;;;;;13.05;100.00;95314.81;5072344;28;20450;-63
2023/05/06 02:47:34;;;;;;;0.40;0.30;;;;;;;13.03;100.00;95319.59;5072284;28;20441;-64
2023/05/06 02:50:03;;;;;;;0.40;0.40;;;;;;;12.94;100.00;95318.66;5072714;28;20441;-63
2023/05/06 02:52:33;;;;;;;0.50;0.50;;;;;;;12.32;100.00;95322.22;5072561;28;20522;-63
2023/05/06 02:55:01;;;;;;;0.40;0.40;;;;;;;12.06;100.00;95315.53;5072317;28;20461;-63
2023/05/06 02:57:30;;;;;;;0.50;0.50;;;;;;;11.76;100.00;95311.25;5071601;28;20524;-63
2023/05/06 02:59:58;;;;;;;0.63;0.57;;;;;;;11.73;100.00;95321.63;5072030;28;20977;-63
2023/05/06 03:02:26;;;;;;;1.23;1.23;;;;;;;11.58;100.00;95316.38;5071826;28;20556;-63
2023/05/06 03:04:56;;;;;;;0.90;0.60;;;;;;;11.95;100.00;95322.78;5071772;28;20441;-63
2023/05/06 03:07:24;;;;;;;2.93;0.77;;;;;;;12.50;100.00;95318.84;5072039;28;20434;-63
2023/05/06 03:09:53;;;;;;;0.40;0.33;;;;;;;12.75;100.00;95315.94;5071758;28;20507;-63
2023/05/06 03:12:21;;;;;;;0.40;0.30;;;;;;;12.57;100.00;95316.66;5072463;28;20521;-62
2023/05/06 03:14:49;;;;;;;0.57;0.53;;;;;;;12.26;100.00;95314.56;5071729;28;20426;-63
2023/05/06 03:17:17;;;;;;;0.60;0.60;;;;;;;12.23;100.00;95318.56;5072264;28;20442;-63
2023/05/06 03:19:46;;;;;;;6.43;0.67;;;;;;;12.00;100.00;95324.59;5072191;28;20434;-63
2023/05/06 03:22:15;;;;;;;1.03;0.53;;;;;;;11.78;100.00;95325.03;5071631;28;21138;-64
2023/05/06 03:24:44;;;;;;;1.63;1.00;;;;;;;11.59;100.00;95326.72;5071286;28;20469;-63
2023/05/06 03:27:12;;;;;;;1.87;0.93;;;;;;;11.47;100.00;95305.03;5070600;28;20819;-62
2023/05/06 03:29:40;;;;;;;0.60;0.60;;;;;;;11.70;100.00;95330.13;5071857;28;20902;-63
2023/05/06 03:32:08;;;;;;;0.40;0.30;;;;;;;11.61;100.00;95331.75;5072073;28;20817;-63
2023/05/06 03:34:37;;;;;;;0.53;0.53;;;;;;;11.66;100.00;95331.72;5071296;28;20429;-59
2023/05/06 03:37:05;;;;;;;0.57;0.57;;;;;;;11.63;100.00;95332.28;5071483;28;20448;-60
2023/05/06 03:39:35;;;;;;;0.77;0.77;;;;;;;11.46;100.00;95329.97;5071543;28;20525;-59
2023/05/06 03:42:03;;;;;;;1.13;1.03;;;;;;;11.23;100.00;95335.94;5070650;28;20470;-59
2023/05/06 03:44:34;;;;;;;1.00;1.00;;;;;;;11.17;100.00;95337.03;5071513;28;20444;-59
2023/05/06 03:47:02;;;;;;;0.40;0.33;;;;;;;11.59;100.00;95337.31;5058276;28;21140;-59
2023/05/06 03:49:30;;;;;;;0.50;0.40;;;;;;;11.35;100.00;95344.38;5071185;28;20524;-59
2023/05/06 03:51:59;;;;;;;8.17;0.97;;;;;;;11.85;100.00;95330.03;5070964;28;20441;-59
2023/05/06 03:54:28;;;;;;;0.90;0.50;;;;;;;12.16;100.00;95339.38;5071944;28;20545;-60
2023/05/06 03:56:57;;;;;;;2.30;0.63;;;;;;;12.10;100.00;95335.16;5071102;28;20442;-59
2023/05/06 03:59:25;;;;;;;1.03;0.77;;;;;;;12.28;100.00;95331.81;5070977;28;20443;-59
2023/05/06 04:01:55;;;;;;;1.17;1.07;;;;;;;12.55;100.00;95333.94;5070821;28;20450;-59
2023/05/06 04:04:24;;;;;;;0.63;0.63;;;;;;;12.43;100.00;95337.00;5071336;28;20467;-59
2023/05/06 04:06:52;;;;;;;0.50;0.40;;;;;;;12.65;100.00;95342.63;5071238;28;21194;-59
2023/05/06 04:09:20;;;;;;;0.50;0.50;;;;;;;12.75;100.00;95345.19;5071656;28;20439;-59
2023/05/06 04:11:49;;;;;;;0.50;0.43;;;;;;;12.80;98.92;95348.88;5071175;28;20433;-59
2023/05/06 04:14:18;;;;;;;0.40;0.30;;;;;;;13.00;95.83;95343.34;5069071;28;20803;-59
2023/05/06 04:16:46;;;;;;;0.50;0.40;;;;;;;13.20;95.52;95343.16;5071256;28;20872;-56
2023/05/06 04:19:16;;;;;;;1.33;1.27;;;;;;;13.35;92.39;95346.41;5070629;28;20442;-60
2023/05/06 04:21:44;;;;;;;0.40;0.40;;;;;;;13.56;90.30;95344.25;5071228;28;20804;-59
2023/05/06 04:24:14;;;;;;;0.60;0.60;;;;;;;13.76;88.21;95359.19;5070879;28;20481;-59
2023/05/06 04:26:43;;;;;;;1.60;0.77;;;;;;;13.56;88.35;95351.47;5070856;28;20608;-58
2023/05/06 04:29:11;;;;;;;0.60;0.60;;;;;;;13.48;93.40;95363.56;5070494;28;20941;-59
2023/05/06 04:31:41;;;;;;;0.40;0.30;;;;;;;13.38;98.36;95358.38;5070902;28;20477;-58
2023/05/06 04:34:10;;;;;;;0.40;0.30;;;;;;;13.49;98.20;95353.69;5070726;28;20564;-58
2023/05/06 04:36:38;;;;;;;0.33;0.27;;;;;;;13.62;96.85;95364.44;5070845;28;20441;-59
2023/05/06 04:39:09;;;;;;;0.30;0.27;;;;;;;13.79;93.42;95356.72;5073686;28;20951;-57
2023/05/06 04:41:37;;;;;;;0.40;0.30;;;;;;;13.92;92.41;95357.88;5075064;28;20473;-57
2023/05/06 04:44:05;;;;;;;0.30;0.20;;;;;;;13.98;91.40;95360.19;5074040;28;20560;-59
2023/05/06 04:46:34;;;;;;;1.00;1.00;;;;;;;14.02;91.74;95357.72;5074153;28;20445;-57
2023/05/06 04:49:04;;;;;;;0.43;0.40;;;;;;;13.93;90.99;95357.63;5073579;28;20482;-58
2023/05/06 04:51:32;;;;;;;0.50;0.50;;;;;;;13.85;91.02;95360.91;5073714;28;20524;-58
2023/05/06 04:54:00;;;;;;;0.40;0.33;;;;;;;14.04;90.74;95355.56;5073506;28;20806;-58
2023/05/06 04:56:29;;;;;;;0.50;0.40;;;;;;;14.20;88.95;95358.78;5073710;28;20441;-59
2023/05/06 04:58:57;;;;;;;0.43;0.37;;;;;;;14.42;87.50;95356.38;5074215;28;20441;-58
2023/05/06 05:01:25;;;;;;;0.40;0.30;;;;;;;14.39;86.44;95356.94;5074614;28;20444;-58
2023/05/06 05:03:54;;;;;;;1.90;1.80;;;;;;;14.70;85.50;95347.31;5074389;28;20477;-59
2023/05/06 05:06:23;;;;;;;3.80;0.60;;;;;;;14.71;84.23;95346.25;5073948;28;20438;-58
2023/05/06 05:08:52;;;;;;;2.10;0.70;;;;;;;14.86;81.04;95345.97;5074018;28;20481;-59
2023/05/06 05:11:22;;;;;;;0.40;0.40;;;;;;;14.94;80.67;95347.97;5073746;28;20437;-59
2023/05/06 05:13:51;;;;;;;0.60;0.57;;;;;;;14.90;81.21;95349.63;5074032;28;20477;-59
2023/05/06 05:16:22;;;;;;;0.40;0.30;;;;;;;15.16;81.75;95347.25;5073964;28;20820;-59
2023/05/06 05:18:50;;;;;;;0.43;0.30;;;;;;;15.24;78.06;95344.72;5074015;28;20465;-59
2023/05/06 05:21:19;;;;;;;0.50;0.33;;;;;;;15.21;81.08;95323.94;5073540;28;20461;-60
2023/05/06 05:23:49;;;;;;;0.50;0.40;;;;;;;15.63;76.98;95349.56;5073900;28;20465;-60
2023/05/06 05:26:24;;;;;;;2.00;0.30;;;;;;;15.51;75.80;95290.47;5073153;28;20478;-62
2023/05/06 05:28:52;;;;;;;0.60;0.50;;;;;;;15.68;76.85;95296.00;5073510;28;20440;-61
2023/05/06 05:31:20;;;;;;;10.70;1.23;;;;;;;15.88;74.78;95340.19;5073434;28;20533;-61
2023/05/06 05:33:49;;;;;;;0.40;0.30;;;;;;;15.74;72.41;95347.44;5073300;28;20442;-62
2023/05/06 05:36:17;;;;;;;0.93;0.93;;;;;;;16.06;71.57;95341.91;5047545;28;20937;-63
2023/05/06 05:38:46;;;;;;;0.40;0.30;;;;;;;16.36;69.94;95341.19;5073785;28;20445;-64
2023/05/06 05:41:16;;;;;;;0.60;0.40;;;;;;;16.40;68.47;95334.13;5073637;28;20452;-65
2023/05/06 05:43:44;;;;;;;0.57;0.40;;;;;;;16.57;65.80;95338.06;5073165;28;20465;-65
2023/05/06 05:46:13;;;;;;;0.40;0.30;;;;;;;16.81;65.75;95344.63;5073502;28;20434;-65
2023/05/06 05:48:42;;;;;;;1.00;1.00;;;;;;;17.06;63.88;95346.66;5072623;28;20445;-65
2023/05/06 05:51:10;;;;;;;0.87;0.30;;;;;;;16.95;68.62;95301.72;5073142;28;20437;-66
2023/05/06 05:53:39;;;;;;;0.57;0.40;;;;;;;17.18;64.33;95338.00;5060574;28;20433;-66
2023/05/06 05:56:07;;;;;;;0.50;0.50;;;;;;;17.03;62.77;95315.13;5076929;28;20438;-66
2023/05/06 05:58:37;;;;;;;0.40;0.30;;;;;;;17.47;61.04;95350.88;5082081;28;20813;-68
2023/05/06 06:01:05;;;;;;;0.40;0.30;;;;;;;17.76;59.60;95348.44;5077525;28;20528;-69
2023/05/06 06:03:34;;;;;;;0.70;0.50;;;;;;;16.93;61.83;95189.56;5073623;28;20504;-69
2023/05/06 06:06:02;;;;;;;0.63;0.63;;;;;;;18.26;60.36;95348.81;5073031;28;20547;-68
2023/05/06 06:08:31;;;;;;;0.40;0.30;;;;;;;18.49;59.51;95331.47;5072831;28;20440;-69
2023/05/06 06:11:00;;;;;;;0.40;0.40;;;;;;;18.60;59.14;95348.78;5072059;28;20441;-65
2023/05/06 06:13:29;;;;;;;1.53;0.40;;;;;;;18.24;57.96;95302.72;5072858;28;20897;-65
2023/05/06 06:15:59;;;;;;;0.40;0.30;;;;;;;18.60;56.26;95342.63;5073056;28;20438;-65
2023/05/06 06:18:28;;;;;;;0.50;0.30;;;;;;;19.04;58.04;95347.56;5073133;28;20518;-66
2023/05/06 06:20:56;;;;;;;1.10;0.80;;;;;;;19.35;56.01;95344.63;5072204;28;20493;-65
2023/05/06 06:23:25;;;;;;;0.57;0.30;;;;;;;19.85;61.01;95336.59;5061836;28;20501;-65
2023/05/06 06:25:53;;;;;;;0.40;0.33;;;;;;;19.68;54.56;95336.72;5071916;28;20480;-64
2023/05/06 06:28:21;;;;;;;0.40;0.40;;;;;;;19.68;55.27;95336.72;5072664;28;20446;-63
2023/05/06 06:30:49;;;;;;;0.40;0.30;;;;;;;19.88;53.66;95339.44;5071166;28;20456;-63
2023/05/06 06:33:19;;;;;;;0.40;0.30;;;;;;;20.24;52.89;95320.00;5072391;28;20444;-62
2023/05/06 06:35:47;;;;;;;0.40;0.30;;;;;;;20.13;51.37;95338.47;5072555;28;20532;-63
2023/05/06 06:38:16;;;;;;;0.50;0.50;;;;;;;20.24;52.15;95315.44;5072399;28;20476;-63
2023/05/06 06:40:44;;;;;;;0.40;0.30;;;;;;;20.13;52.82;95319.63;5072358;28;20434;-62
2023/05/06 06:43:12;;;;;;;0.87;0.87;;;;;;;20.09;51.73;95326.75;5071932;28;20442;-64
2023/05/06 06:45:41;;;;;;;0.57;0.37;;;;;;;20.57;53.66;95330.81;5072230;28;20472;-64
2023/05/06 06:48:10;;;;;;;0.40;0.40;;;;;;;21.01;51.65;95313.88;5072238;28;20443;-65
2023/05/06 06:50:40;;;;;;;0.40;0.30;;;;;;;20.66;49.01;95334.22;5072075;28;20441;-66
2023/05/06 06:53:10;;;;;;;0.40;0.30;;;;;;;20.90;52.92;95315.41;5071522;28;20882;-65
2023/05/06 06:55:38;;;;;;;0.40;0.30;;;;;;;20.86;50.92;95256.03;5072258;28;20517;-68
2023/05/06 06:58:07;;;;;;;0.50;0.40;;;;;;;20.55;48.56;95327.66;5071637;28;20448;-66
2023/05/06 07:00:35;;;;;;;0.40;0.30;;;;;;;21.30;54.24;95313.69;5071780;28;20878;-67
2023/05/06 07:03:04;;;;;;;1.53;0.40;;;;;;;21.91;49.13;95322.53;5058875;28;20434;-67
2023/05/06 07:05:32;;;;;;;0.40;0.30;;;;;;;22.03;49.40;95327.16;5071794;28;20477;-68
2023/05/06 07:08:02;;;;;;;0.43;0.30;;;;;;;21.71;49.07;95326.13;5071494;28;20456;-68
2023/05/06 07:10:30;;;;;;;0.40;0.33;;;;;;;21.50;49.63;95320.09;5072234;28;20437;-70
2023/05/06 07:12:58;;;;;;;0.50;0.50;;;;;;;21.16;50.09;95321.31;5071502;28;20447;-68
2023/05/06 07:15:27;;;;;;;0.70;0.70;;;;;;;20.90;55.84;95326.97;5071826;28;20957;-69
2023/05/06 07:17:55;;;;;;;6.83;1.67;;;;;;;20.22;48.83;95328.41;5071176;28;20934;-67
2023/05/06 07:20:26;;;;;;;0.50;0.50;;;;;;;20.47;52.23;95334.69;5071660;28;20445;-66
2023/05/06 07:22:54;;;;;;;0.70;0.60;;;;;;;20.21;53.88;95329.50;5071724;28;20541;-66
2023/05/06 07:25:24;;;;;;;0.40;0.20;;;;;;;20.16;49.24;95321.63;5071419;28;20520;-65
2023/05/06 07:27:52;;;;;;;0.80;0.30;;;;;;;20.24;47.50;95328.09;5071026;28;20434;-63
2023/05/06 07:30:22;;;;;;;0.50;0.40;;;;;;;19.86;50.33;95306.66;5071287;28;20536;-62
2023/05/06 07:32:50;;;;;;;0.60;0.60;;;;;;;19.65;50.97;95348.91;5071298;28;20450;-62
2023/05/06 07:35:19;;;;;;;0.40;0.30;;;;;;;19.53;50.24;95338.84;5071456;28;20445;-63
2023/05/06 07:37:47;;;;;;;1.17;0.30;;;;;;;19.87;51.30;95343.22;5071599;28;20437;-63
2023/05/06 07:40:15;;;;;;;0.40;0.30;;;;;;;19.90;50.62;95337.19;5070946;28;20444;-63
2023/05/06 07:42:45;;;;;;;0.40;0.30;;;;;;;20.19;51.11;95330.94;5071597;28;20445;-63
2023/05/06 07:45:14;;;;;;;0.60;0.40;;;;;;;20.19;48.72;95336.34;5071141;28;20973;-63
2023/05/06 07:47:42;;;;;;;0.50;0.50;;;;;;;20.60;50.08;95330.16;5071384;28;20807;-64
2023/05/06 07:50:11;;;;;;;0.30;0.30;;;;;;;20.45;49.58;95309.22;5071494;28;20477;-64
2023/05/06 07:52:39;;;;;;;0.40;0.30;;;;;;;20.55;50.53;95338.44;5071093;28;20452;-64
2023/05/06 07:55:09;;;;;;;0.30;0.30;;;;;;;20.48;51.78;95338.19;5071281;28;20448;-63
2023/05/06 07:57:38;;;;;;;0.50;0.40;;;;;;;20.13;51.40;95341.16;5071201;28;20456;-65
2023/05/06 08:00:09;;;;;;;0.40;0.30;;;;;;;20.06;50.76;95342.78;5071135;28;20529;-65
2023/05/06 08:02:42;;;;;;;0.40;0.30;;;;;;;20.16;49.48;95335.09;5071746;28;20448;-65
2023/05/06 08:05:12;;;;;;;0.40;0.20;;;;;;;20.18;50.36;95330.19;5071493;28;20860;-63
2023/05/06 08:07:41;;;;;;;0.50;0.50;;;;;;;19.84;49.26;95281.22;5071416;28;20434;-66
2023/05/06 08:10:10;;;;;;;0.50;0.30;;;;;;;20.00;50.26;95326.06;5071870;28;20860;-66
2023/05/06 08:12:38;;;;;;;0.30;0.20;;;;;;;20.14;49.99;95339.22;5077552;28;20453;-66
2023/05/06 08:15:10;;;;;;;0.57;0.40;;;;;;;20.32;49.54;95346.06;5075132;28;20528;-66
2023/05/06 08:17:38;;;;;;;0.80;0.50;;;;;;;20.25;49.30;95340.44;5075421;28;20433;-65
2023/05/06 08:20:09;;;;;;;0.40;0.40;;;;;;;20.36;50.23;95344.31;5075749;28;20446;-66
2023/05/06 08:22:38;;;;;;;0.50;0.30;;;;;;;20.39;48.39;95340.94;5075191;28;20535;-65
2023/05/06 08:25:07;;;;;;;0.40;0.30;;;;;;;20.34;49.60;95305.38;5075233;28;20479;-64
2023/05/06 08:27:36;;;;;;;0.40;0.20;;;;;;;20.30;47.74;95344.84;5074652;28;20993;-64
2023/05/06 08:30:05;;;;;;;0.40;0.30;;;;;;;20.30;48.16;95342.13;5075229;28;20533;-64
2023/05/06 08:32:35;;;;;;;0.40;0.30;;;;;;;19.99;48.31;95337.91;5074897;28;20425;-65
2023/05/06 08:35:04;;;;;;;0.60;0.60;;;;;;;20.43;49.60;95333.00;5075227;28;20442;-65
2023/05/06 08:37:32;;;;;;;0.67;0.67;;;;;;;20.13;49.16;95334.97;5074603;28;21121;-64
2023/05/06 08:40:01;;;;;;;0.50;0.50;;;;;;;20.14;48.11;95345.41;5075258;28;20885;-65
2023/05/06 08:42:30;;;;;;;0.30;0.30;;;;;;;20.29;49.23;95345.97;5074857;28;20433;-64
2023/05/06 08:44:59;;;;;;;0.83;0.83;;;;;;;19.40;48.42;95352.53;5075072;28;20988;-64
2023/05/06 08:47:27;;;;;;;0.50;0.47;;;;;;;19.69;51.07;95349.81;5048794;28;20465;-63
2023/05/06 08:49:57;;;;;;;0.40;0.30;;;;;;;19.81;49.74;95349.13;5074448;28;20444;-63
2023/05/06 08:52:26;;;;;;;0.40;0.30;;;;;;;19.33;50.56;95354.88;5074556;28;20438;-63
2023/05/06 08:55:00;;;;;;;0.40;0.20;;;;;;;19.39;50.79;95348.25;5074237;28;20989;-64
2023/05/06 08:57:30;;;;;;;0.40;0.33;;;;;;;19.59;54.41;95352.88;5074732;28;20486;-63
2023/05/06 08:59:59;;;;;;;0.40;0.30;;;;;;;19.53;50.98;95349.59;5073733;28;20477;-64
2023/05/06 09:02:27;;;;;;;0.40;0.40;;;;;;;19.17;50.94;95343.09;5074582;28;20522;-64
2023/05/06 09:04:57;;;;;;;0.40;0.30;;;;;;;19.35;50.59;95366.13;5073928;28;20981;-63
2023/05/06 09:07:25;;;;;;;0.60;0.60;;;;;;;19.11;49.92;95366.66;5073952;28;20524;-64
2023/05/06 09:09:54;;;;;;;0.50;0.43;;;;;;;19.20;50.32;95369.34;5073399;28;20813;-64
2023/05/06 09:12:24;;;;;;;0.40;0.27;;;;;;;19.07;51.97;95356.91;5073841;28;20461;-63
2023/05/06 09:14:54;;;;;;;0.40;0.30;;;;;;;19.39;50.71;95357.09;5073486;28;20442;-63
2023/05/06 09:17:25;;;;;;;0.63;0.30;;;;;;;19.40;49.68;95352.53;5073706;28;20521;-64
2023/05/06 09:19:55;;;;;;;0.40;0.40;;;;;;;19.45;51.27;95366.56;5073928;28;20437;-64
2023/05/06 09:22:27;;;;;;;0.40;0.30;;;;;;;19.45;50.54;95360.41;5073329;28;20446;-63
2023/05/06 09:24:56;;;;;;;0.40;0.30;;;;;;;19.67;51.84;95362.03;5072260;28;20499;-64
2023/05/06 09:27:26;;;;;;;0.40;0.30;;;;;;;19.70;51.26;95362.16;5072855;28;20487;-64
2023/05/06 09:30:01;;;;;;;0.40;0.30;;;;;;;19.94;50.98;95362.31;5074244;28;20516;-64
2023/05/06 09:32:30;;;;;;;0.40;0.30;;;;;;;19.81;50.23;95363.34;5073298;28;20830;-64
2023/05/06 09:34:59;;;;;;;0.40;0.30;;;;;;;19.55;49.14;95360.84;5073514;28;20437;-65
2023/05/06 09:37:29;;;;;;;3.60;0.60;;;;;;;19.55;50.63;95351.97;5073571;28;20430;-64
2023/05/06 09:40:03;;;;;;;0.40;0.30;;;;;;;19.47;52.92;95304.41;5074037;28;20446;-65
2023/05/06 09:42:32;;;;;;;0.83;0.83;;;;;;;19.64;47.88;95348.13;5073169;28;20440;-64
2023/05/06 09:45:02;;;;;;;0.43;0.40;;;;;;;19.51;50.14;95338.38;5073280;28;20433;-64
2023/05/06 09:47:34;;;;;;;0.67;0.67;;;;;;;19.34;51.53;95311.56;5047596;28;20437;-64
2023/05/06 09:50:03;;;;;;;0.67;0.67;;;;;;;19.33;48.90;95325.31;5073172;28;20441;-64
2023/05/06 09:52:33;;;;;;;0.50;0.33;;;;;;;19.58;47.47;95337.88;5073044;28;20968;-64
2023/05/06 09:55:03;;;;;;;0.83;0.40;;;;;;;19.51;47.73;95319.56;5072961;28;20445;-65
2023/05/06 09:57:32;;;;;;;0.50;0.50;;;;;;;19.65;50.53;95332.78;5073130;28;20445;-64
2023/05/06 10:00:02;;;;;;;0.50;0.50;;;;;;;19.61;47.45;95338.00;5072891;28;20815;-64
2023/05/06 10:02:31;;;;;;;0.50;0.40;;;;;;;19.81;47.57;95331.06;5073249;28;20808;-65
2023/05/06 10:05:04;;;;;;;0.40;0.33;;;;;;;19.87;48.19;95335.16;5072661;28;20823;-62
2023/05/06 10:07:36;;;;;;;0.53;0.53;;;;;;;19.84;47.15;95335.00;5072915;28;20477;-64
2023/05/06 10:10:08;;;;;;;1.13;0.60;;;;;;;19.78;48.98;95334.44;5072761;28;20448;-64
2023/05/06 10:12:37;;;;;;;0.40;0.30;;;;;;;19.89;49.67;95338.31;5072978;28;20946;-65
2023/05/06 10:15:06;;;;;;;0.40;0.30;;;;;;;19.84;49.56;95332.31;5046771;28;20503;-65
2023/05/06 10:17:37;;;;;;;0.40;0.30;;;;;;;19.69;48.23;95325.63;5072551;28;20476;-65
2023/05/06 10:20:08;;;;;;;0.60;0.60;;;;;;;19.93;49.69;95325.78;5072818;28;20438;-65
2023/05/06 10:22:48;;;;;;;0.40;0.30;;;;;;;19.93;52.13;95328.47;5072283;28;20441;-65
2023/05/06 10:25:29;;;;;;;0.73;0.73;;;;;;;19.98;49.09;95341.75;5074624;28;20491;-66
2023/05/06 10:27:58;;;;;;;0.40;0.30;;;;;;;19.97;48.35;95318.63;5087721;28;20433;-65
2023/05/06 10:30:30;;;;;;;0.50;0.40;;;;;;;20.14;48.92;95328.47;5072633;28;20946;-64
2023/05/06 10:33:03;;;;;;;0.40;0.30;;;;;;;20.10;48.30;95332.94;5072137;28;20446;-64
2023/05/06 10:35:41;;;;;;;0.30;0.20;;;;;;;20.11;48.07;95327.22;5072161;28;20525;-64
2023/05/06 10:38:15;;;;;;;0.50;0.30;;;;;;;20.29;48.97;95325.19;5072498;28;20825;-64
2023/05/06 10:40:44;;;;;;;0.40;0.30;;;;;;;19.95;46.44;95333.53;5072161;28;20440;-64
2023/05/06 10:43:27;;;;;;;1.63;0.30;;;;;;;20.38;48.61;95331.31;5072850;28;20445;-64
2023/05/06 10:46:00;;;;;;;0.40;0.40;;;;;;;20.30;46.74;95332.16;5047641;28;21092;-65
2023/05/06 10:48:29;;;;;;;1.17;0.33;;;;;;;20.60;48.17;95327.44;5071793;28;21247;-65
2023/05/06 10:51:21;;;;;;;0.30;0.20;;;;;;;20.53;47.30;95332.59;5072363;28;20889;-65
2023/05/06 10:53:59;;;;;;;1.07;0.30;;;;;;;20.85;48.05;95337.97;5069538;28;20446;-65
2023/05/06 10:56:27;;;;;;;0.40;0.30;;;;;;;20.58;47.18;95329.69;5071629;28;20469;-64
2023/05/06 10:58:56;;;;;;;0.73;0.40;;;;;;;20.77;47.17;95333.44;5071711;28;20571;-64
2023/05/06 11:01:27;;;;;;;0.30;0.20;;;;;;;21.00;47.58;95336.53;5071922;28;20528;-64
2023/05/06 11:03:55;;;;;;;0.50;0.30;;;;;;;21.00;46.14;95336.53;5071750;28;20464;-65
2023/05/06 11:06:45;;;;;;;0.40;0.27;;;;;;;21.09;45.02;95337.28;5071218;28;20851;-65
2023/05/06 11:09:20;;;;;;;0.40;0.30;;;;;;;21.27;45.27;95344.03;5071743;28;20445;-65
2023/05/06 11:11:51;;;;;;;0.30;0.20;;;;;;;21.53;45.73;95341.78;5071813;28;20461;-65
2023/05/06 11:14:27;;;;;;;0.30;0.30;;;;;;;21.89;45.84;95342.91;5071906;28;20512;-65
2023/05/06 11:16:57;;;;;;;0.50;0.30;;;;;;;21.83;45.22;95338.84;5071745;28;20520;-65
2023/05/06 11:19:27;;;;;;;0.83;0.30;;;;;;;22.16;44.48;95342.19;5071471;28;20442;-66
2023/05/06 11:21:57;;;;;;;0.40;0.20;;;;;;;21.90;43.81;95353.38;5071727;28;20442;-66
2023/05/06 11:24:28;;;;;;;0.30;0.20;;;;;;;22.01;45.15;95353.69;5071315;28;20433;-66
2023/05/06 11:27:03;;;;;;;0.30;0.20;;;;;;;21.79;44.71;95344.13;5071425;28;20554;-67
2023/05/06 11:29:31;;;;;;;0.30;0.20;;;;;;;21.48;46.73;95306.94;5071383;28;20450;-66
2023/05/06 11:32:00;;;;;;;0.40;0.27;;;;;;;21.93;44.15;95350.00;5071448;28;20446;-67
2023/05/06 11:34:30;;;;;;;0.40;0.40;;;;;;;22.16;45.82;95344.09;5071175;28;20533;-68
2023/05/06 11:37:01;;;;;;;0.40;0.30;;;;;;;22.51;44.03;95340.50;5071579;28;20533;-68
2023/05/06 11:39:33;;;;;;;0.30;0.23;;;;;;;22.40;44.15;95331.31;5063913;28;20473;-68
2023/05/06 11:42:07;;;;;;;0.40;0.30;;;;;;;22.44;43.19;95342.97;5067142;28;20481;-71